sensor_id;sensor_type;location;lat;lon;timestamp;P1;durP1;ratioP1;P2;durP2;ratioP2
55346;SDS011;41218;55.700;38.270;2024-01-30T00:01:20;12.88;;;5.13;;
55346;SDS011;41218;55.700;38.270;2024-01-30T00:06:21;13.68;;;4.93;;
55346;SDS011;41218;55.700;38.270;2024-01-30T00:11:24;13.75;;;5.40;;
55346;SDS011;41218;55.700;38.270;2024-01-30T00:16:29;11.55;;;4.85;;
55346;SDS011;41218;55.700;38.270;2024-01-30T00:21:29;8.82;;;3.72;;
55346;SDS011;41218;55.700;38.270;2024-01-30T00:26:31;5.28;;;2.83;;
55346;SDS011;41218;55.700;38.270;2024-01-30T00:31:32;13.75;;;5.18;;
55346;SDS011;41218;55.700;38.270;2024-01-30T00:36:39;12.10;;;4.82;;
55346;SDS011;41218;55.700;38.270;2024-01-30T00:41:40;14.75;;;5.50;;
55346;SDS011;41218;55.700;38.270;2024-01-30T00:46:42;13.70;;;4.55;;
55346;SDS011;41218;55.700;38.270;2024-01-30T00:51:42;12.73;;;4.70;;
55346;SDS011;41218;55.700;38.270;2024-01-30T00:56:43;12.75;;;5.38;;
55346;SDS011;41218;55.700;38.270;2024-01-30T01:01:44;10.93;;;4.55;;
55346;SDS011;41218;55.700;38.270;2024-01-30T01:06:44;10.75;;;4.90;;
55346;SDS011;41218;55.700;38.270;2024-01-30T01:11:45;11.52;;;4.50;;
55346;SDS011;41218;55.700;38.270;2024-01-30T01:16:46;15.70;;;5.53;;
55346;SDS011;41218;55.700;38.270;2024-01-30T01:21:47;12.80;;;4.50;;
55346;SDS011;41218;55.700;38.270;2024-01-30T01:26:48;8.77;;;4.10;;
55346;SDS011;41218;55.700;38.270;2024-01-30T01:31:48;11.30;;;4.65;;
55346;SDS011;41218;55.700;38.270;2024-01-30T01:36:49;16.27;;;5.40;;
55346;SDS011;41218;55.700;38.270;2024-01-30T01:41:51;14.30;;;5.65;;
55346;SDS011;41218;55.700;38.270;2024-01-30T01:46:53;13.23;;;5.45;;
55346;SDS011;41218;55.700;38.270;2024-01-30T01:51:55;19.10;;;6.30;;
55346;SDS011;41218;55.700;38.270;2024-01-30T01:56:57;14.32;;;6.07;;
55346;SDS011;41218;55.700;38.270;2024-01-30T02:01:58;15.68;;;5.40;;
55346;SDS011;41218;55.700;38.270;2024-01-30T02:07:00;11.70;;;5.10;;
55346;SDS011;41218;55.700;38.270;2024-01-30T02:12:01;15.25;;;5.75;;
55346;SDS011;41218;55.700;38.270;2024-01-30T02:17:03;13.15;;;5.03;;
55346;SDS011;41218;55.700;38.270;2024-01-30T02:22:05;12.02;;;4.82;;
55346;SDS011;41218;55.700;38.270;2024-01-30T02:27:07;12.32;;;5.40;;
55346;SDS011;41218;55.700;38.270;2024-01-30T02:32:08;10.27;;;4.57;;
55346;SDS011;41218;55.700;38.270;2024-01-30T02:37:09;10.70;;;4.18;;
55346;SDS011;41218;55.700;38.270;2024-01-30T02:42:10;11.50;;;4.67;;
55346;SDS011;41218;55.700;38.270;2024-01-30T02:47:11;13.02;;;5.03;;
55346;SDS011;41218;55.700;38.270;2024-01-30T02:52:12;11.20;;;5.37;;
55346;SDS011;41218;55.700;38.270;2024-01-30T02:57:13;8.03;;;3.40;;
55346;SDS011;41218;55.700;38.270;2024-01-30T03:02:13;15.02;;;4.85;;
55346;SDS011;41218;55.700;38.270;2024-01-30T03:07:14;10.60;;;4.65;;
55346;SDS011;41218;55.700;38.270;2024-01-30T03:12:15;10.63;;;4.23;;
55346;SDS011;41218;55.700;38.270;2024-01-30T03:17:16;9.67;;;4.93;;
55346;SDS011;41218;55.700;38.270;2024-01-30T03:22:17;8.85;;;3.95;;
55346;SDS011;41218;55.700;38.270;2024-01-30T03:27:18;7.05;;;3.00;;
55346;SDS011;41218;55.700;38.270;2024-01-30T03:32:18;10.93;;;4.63;;
55346;SDS011;41218;55.700;38.270;2024-01-30T03:37:19;11.13;;;4.82;;
55346;SDS011;41218;55.700;38.270;2024-01-30T03:42:20;10.57;;;4.22;;
55346;SDS011;41218;55.700;38.270;2024-01-30T03:47:22;11.02;;;4.63;;
55346;SDS011;41218;55.700;38.270;2024-01-30T03:52:23;12.27;;;5.43;;
55346;SDS011;41218;55.700;38.270;2024-01-30T03:57:24;13.30;;;4.87;;
55346;SDS011;41218;55.700;38.270;2024-01-30T04:02:25;11.52;;;5.43;;
55346;SDS011;41218;55.700;38.270;2024-01-30T04:07:25;12.80;;;5.17;;
55346;SDS011;41218;55.700;38.270;2024-01-30T04:12:26;16.33;;;5.38;;
55346;SDS011;41218;55.700;38.270;2024-01-30T04:17:27;10.95;;;5.03;;
55346;SDS011;41218;55.700;38.270;2024-01-30T04:22:29;11.07;;;5.25;;
55346;SDS011;41218;55.700;38.270;2024-01-30T04:27:29;11.73;;;5.37;;
55346;SDS011;41218;55.700;38.270;2024-01-30T04:32:32;14.32;;;6.18;;
55346;SDS011;41218;55.700;38.270;2024-01-30T04:37:34;13.35;;;5.57;;
55346;SDS011;41218;55.700;38.270;2024-01-30T04:42:35;14.85;;;6.07;;
55346;SDS011;41218;55.700;38.270;2024-01-30T04:47:36;11.68;;;5.55;;
55346;SDS011;41218;55.700;38.270;2024-01-30T04:52:36;13.10;;;5.30;;
55346;SDS011;41218;55.700;38.270;2024-01-30T04:57:38;14.43;;;5.73;;
55346;SDS011;41218;55.700;38.270;2024-01-30T05:02:39;14.23;;;6.00;;
55346;SDS011;41218;55.700;38.270;2024-01-30T05:07:41;13.90;;;5.57;;
55346;SDS011;41218;55.700;38.270;2024-01-30T05:12:42;12.60;;;5.32;;
55346;SDS011;41218;55.700;38.270;2024-01-30T05:17:43;8.57;;;3.67;;
55346;SDS011;41218;55.700;38.270;2024-01-30T05:22:44;11.35;;;5.15;;
55346;SDS011;41218;55.700;38.270;2024-01-30T05:27:46;15.38;;;5.55;;
55346;SDS011;41218;55.700;38.270;2024-01-30T05:32:48;13.68;;;5.40;;
55346;SDS011;41218;55.700;38.270;2024-01-30T05:37:49;15.13;;;5.82;;
55346;SDS011;41218;55.700;38.270;2024-01-30T05:42:50;14.10;;;6.13;;
55346;SDS011;41218;55.700;38.270;2024-01-30T05:47:51;13.77;;;5.85;;
55346;SDS011;41218;55.700;38.270;2024-01-30T05:52:52;13.93;;;5.77;;
55346;SDS011;41218;55.700;38.270;2024-01-30T05:57:54;11.38;;;5.80;;
55346;SDS011;41218;55.700;38.270;2024-01-30T06:02:54;10.73;;;4.93;;
55346;SDS011;41218;55.700;38.270;2024-01-30T06:07:55;13.18;;;6.10;;
55346;SDS011;41218;55.700;38.270;2024-01-30T06:12:56;12.02;;;5.68;;
55346;SDS011;41218;55.700;38.270;2024-01-30T06:17:57;11.40;;;5.30;;
55346;SDS011;41218;55.700;38.270;2024-01-30T06:22:57;14.73;;;6.00;;
55346;SDS011;41218;55.700;38.270;2024-01-30T06:27:58;9.53;;;4.37;;
55346;SDS011;41218;55.700;38.270;2024-01-30T06:32:59;13.80;;;5.77;;
55346;SDS011;41218;55.700;38.270;2024-01-30T06:37:59;13.40;;;5.68;;
55346;SDS011;41218;55.700;38.270;2024-01-30T06:43:00;15.77;;;6.57;;
55346;SDS011;41218;55.700;38.270;2024-01-30T06:48:01;11.63;;;5.10;;
55346;SDS011;41218;55.700;38.270;2024-01-30T06:53:02;11.73;;;5.30;;
55346;SDS011;41218;55.700;38.270;2024-01-30T06:58:03;15.95;;;6.13;;
55346;SDS011;41218;55.700;38.270;2024-01-30T07:03:04;17.27;;;7.23;;
55346;SDS011;41218;55.700;38.270;2024-01-30T07:08:05;15.00;;;6.43;;
55346;SDS011;41218;55.700;38.270;2024-01-30T07:13:07;15.80;;;6.75;;
55346;SDS011;41218;55.700;38.270;2024-01-30T07:18:09;15.73;;;6.97;;
55346;SDS011;41218;55.700;38.270;2024-01-30T07:23:10;15.10;;;6.17;;
55346;SDS011;41218;55.700;38.270;2024-01-30T07:28:14;16.95;;;6.30;;
55346;SDS011;41218;55.700;38.270;2024-01-30T07:33:18;19.30;;;7.20;;
55346;SDS011;41218;55.700;38.270;2024-01-30T07:38:19;15.20;;;6.53;;
55346;SDS011;41218;55.700;38.270;2024-01-30T07:43:20;19.23;;;6.47;;
55346;SDS011;41218;55.700;38.270;2024-01-30T07:48:22;12.88;;;6.15;;
55346;SDS011;41218;55.700;38.270;2024-01-30T07:53:23;18.40;;;6.70;;
55346;SDS011;41218;55.700;38.270;2024-01-30T07:58:24;15.77;;;6.23;;
55346;SDS011;41218;55.700;38.270;2024-01-30T08:03:27;14.52;;;6.05;;
55346;SDS011;41218;55.700;38.270;2024-01-30T08:08:28;15.93;;;6.50;;
55346;SDS011;41218;55.700;38.270;2024-01-30T08:13:29;20.40;;;6.10;;
55346;SDS011;41218;55.700;38.270;2024-01-30T08:18:32;14.25;;;5.82;;
55346;SDS011;41218;55.700;38.270;2024-01-30T08:23:33;17.40;;;6.53;;
55346;SDS011;41218;55.700;38.270;2024-01-30T08:28:33;18.47;;;6.67;;
55346;SDS011;41218;55.700;38.270;2024-01-30T08:33:34;13.63;;;5.33;;
55346;SDS011;41218;55.700;38.270;2024-01-30T08:38:34;15.57;;;6.57;;
55346;SDS011;41218;55.700;38.270;2024-01-30T08:43:35;14.70;;;6.43;;
55346;SDS011;41218;55.700;38.270;2024-01-30T08:48:36;16.98;;;6.28;;
55346;SDS011;41218;55.700;38.270;2024-01-30T08:53:37;13.63;;;4.90;;
55346;SDS011;41218;55.700;38.270;2024-01-30T08:58:37;18.90;;;6.90;;
55346;SDS011;41218;55.700;38.270;2024-01-30T09:03:39;17.45;;;6.82;;
55346;SDS011;41218;55.700;38.270;2024-01-30T09:08:41;15.73;;;6.35;;
55346;SDS011;41218;55.700;38.270;2024-01-30T09:13:41;16.07;;;6.30;;
55346;SDS011;41218;55.700;38.270;2024-01-30T09:18:42;17.25;;;6.90;;
55346;SDS011;41218;55.700;38.270;2024-01-30T09:23:43;17.97;;;6.17;;
55346;SDS011;41218;55.700;38.270;2024-01-30T09:28:44;17.30;;;6.82;;
55346;SDS011;41218;55.700;38.270;2024-01-30T09:33:46;15.60;;;7.07;;
55346;SDS011;41218;55.700;38.270;2024-01-30T09:38:48;21.02;;;7.47;;
55346;SDS011;41218;55.700;38.270;2024-01-30T09:43:48;14.67;;;6.40;;
55346;SDS011;41218;55.700;38.270;2024-01-30T09:48:50;18.60;;;6.70;;
55346;SDS011;41218;55.700;38.270;2024-01-30T09:53:52;18.08;;;7.45;;
55346;SDS011;41218;55.700;38.270;2024-01-30T09:58:55;16.60;;;7.18;;
55346;SDS011;41218;55.700;38.270;2024-01-30T10:03:59;12.60;;;5.50;;
55346;SDS011;41218;55.700;38.270;2024-01-30T10:14:01;14.83;;;6.73;;
55346;SDS011;41218;55.700;38.270;2024-01-30T10:19:02;13.02;;;5.72;;
55346;SDS011;41218;55.700;38.270;2024-01-30T10:24:03;19.10;;;6.78;;
55346;SDS011;41218;55.700;38.270;2024-01-30T10:29:04;15.48;;;6.10;;
55346;SDS011;41218;55.700;38.270;2024-01-30T10:34:05;20.42;;;8.45;;
55346;SDS011;41218;55.700;38.270;2024-01-30T10:39:05;21.87;;;7.40;;
55346;SDS011;41218;55.700;38.270;2024-01-30T10:44:10;20.40;;;8.60;;
55346;SDS011;41218;55.700;38.270;2024-01-30T10:49:11;23.25;;;8.35;;
55346;SDS011;41218;55.700;38.270;2024-01-30T10:54:14;17.13;;;7.57;;
55346;SDS011;41218;55.700;38.270;2024-01-30T10:59:15;18.88;;;7.13;;
55346;SDS011;41218;55.700;38.270;2024-01-30T11:04:17;18.98;;;7.88;;
55346;SDS011;41218;55.700;38.270;2024-01-30T11:09:17;17.20;;;7.83;;
55346;SDS011;41218;55.700;38.270;2024-01-30T11:19:23;26.88;;;9.32;;
55346;SDS011;41218;55.700;38.270;2024-01-30T11:24:27;23.38;;;9.38;;
55346;SDS011;41218;55.700;38.270;2024-01-30T11:29:28;20.50;;;8.27;;
55346;SDS011;41218;55.700;38.270;2024-01-30T11:34:29;21.73;;;9.40;;
55346;SDS011;41218;55.700;38.270;2024-01-30T11:39:29;19.03;;;8.90;;
55346;SDS011;41218;55.700;38.270;2024-01-30T11:44:30;17.42;;;6.88;;
55346;SDS011;41218;55.700;38.270;2024-01-30T11:49:31;21.63;;;9.23;;
55346;SDS011;41218;55.700;38.270;2024-01-30T11:54:32;22.95;;;10.05;;
55346;SDS011;41218;55.700;38.270;2024-01-30T11:59:33;21.07;;;9.30;;
55346;SDS011;41218;55.700;38.270;2024-01-30T12:04:34;21.95;;;9.48;;
55346;SDS011;41218;55.700;38.270;2024-01-30T12:09:34;21.67;;;9.67;;
55346;SDS011;41218;55.700;38.270;2024-01-30T12:14:35;19.67;;;8.63;;
55346;SDS011;41218;55.700;38.270;2024-01-30T12:19:36;13.80;;;5.32;;
55346;SDS011;41218;55.700;38.270;2024-01-30T12:24:37;19.40;;;7.03;;
55346;SDS011;41218;55.700;38.270;2024-01-30T12:29:41;18.47;;;7.20;;
55346;SDS011;41218;55.700;38.270;2024-01-30T12:34:42;14.45;;;6.07;;
55346;SDS011;41218;55.700;38.270;2024-01-30T12:39:43;10.57;;;4.30;;
55346;SDS011;41218;55.700;38.270;2024-01-30T12:44:43;11.03;;;4.60;;
55346;SDS011;41218;55.700;38.270;2024-01-30T12:49:44;15.77;;;6.53;;
55346;SDS011;41218;55.700;38.270;2024-01-30T12:54:45;14.13;;;6.63;;
55346;SDS011;41218;55.700;38.270;2024-01-30T12:59:46;17.70;;;6.72;;
55346;SDS011;41218;55.700;38.270;2024-01-30T13:04:47;16.80;;;6.25;;
55346;SDS011;41218;55.700;38.270;2024-01-30T13:09:48;15.73;;;6.73;;
55346;SDS011;41218;55.700;38.270;2024-01-30T13:14:48;16.57;;;7.30;;
55346;SDS011;41218;55.700;38.270;2024-01-30T13:19:49;15.03;;;7.07;;
55346;SDS011;41218;55.700;38.270;2024-01-30T13:24:50;18.03;;;5.97;;
55346;SDS011;41218;55.700;38.270;2024-01-30T13:29:50;20.70;;;6.75;;
55346;SDS011;41218;55.700;38.270;2024-01-30T13:34:51;17.17;;;6.83;;
55346;SDS011;41218;55.700;38.270;2024-01-30T13:39:52;22.47;;;7.77;;
55346;SDS011;41218;55.700;38.270;2024-01-30T13:44:52;19.33;;;8.10;;
55346;SDS011;41218;55.700;38.270;2024-01-30T13:49:53;20.52;;;8.00;;
55346;SDS011;41218;55.700;38.270;2024-01-30T13:54:54;19.17;;;7.60;;
55346;SDS011;41218;55.700;38.270;2024-01-30T13:59:55;20.45;;;8.02;;
55346;SDS011;41218;55.700;38.270;2024-01-30T14:04:57;18.90;;;7.00;;
55346;SDS011;41218;55.700;38.270;2024-01-30T14:09:58;23.73;;;8.00;;
55346;SDS011;41218;55.700;38.270;2024-01-30T14:14:58;22.07;;;8.10;;
55346;SDS011;41218;55.700;38.270;2024-01-30T14:19:59;24.80;;;9.80;;
55346;SDS011;41218;55.700;38.270;2024-01-30T14:25:00;25.63;;;9.27;;
55346;SDS011;41218;55.700;38.270;2024-01-30T14:30:03;25.67;;;9.55;;
55346;SDS011;41218;55.700;38.270;2024-01-30T14:35:05;21.48;;;8.90;;
55346;SDS011;41218;55.700;38.270;2024-01-30T14:40:06;19.67;;;8.25;;
55346;SDS011;41218;55.700;38.270;2024-01-30T14:45:07;24.38;;;8.40;;
55346;SDS011;41218;55.700;38.270;2024-01-30T14:55:09;18.70;;;7.87;;
55346;SDS011;41218;55.700;38.270;2024-01-30T15:00:10;21.87;;;8.47;;
55346;SDS011;41218;55.700;38.270;2024-01-30T15:05:13;23.70;;;8.20;;
55346;SDS011;41218;55.700;38.270;2024-01-30T15:10:14;23.20;;;9.13;;
55346;SDS011;41218;55.700;38.270;2024-01-30T15:15:16;25.67;;;8.93;;
55346;SDS011;41218;55.700;38.270;2024-01-30T15:20:17;18.83;;;8.13;;
55346;SDS011;41218;55.700;38.270;2024-01-30T15:25:18;21.10;;;7.93;;
55346;SDS011;41218;55.700;38.270;2024-01-30T15:30:19;23.30;;;8.40;;
55346;SDS011;41218;55.700;38.270;2024-01-30T15:35:19;23.27;;;8.33;;
55346;SDS011;41218;55.700;38.270;2024-01-30T15:40:20;13.83;;;5.67;;
55346;SDS011;41218;55.700;38.270;2024-01-30T15:45:21;20.47;;;7.33;;
55346;SDS011;41218;55.700;38.270;2024-01-30T15:50:21;21.47;;;7.80;;
55346;SDS011;41218;55.700;38.270;2024-01-30T15:55:22;14.33;;;5.57;;
55346;SDS011;41218;55.700;38.270;2024-01-30T16:00:23;19.17;;;7.57;;
55346;SDS011;41218;55.700;38.270;2024-01-30T16:05:23;18.63;;;7.03;;
55346;SDS011;41218;55.700;38.270;2024-01-30T16:10:24;21.55;;;7.97;;
55346;SDS011;41218;55.700;38.270;2024-01-30T16:20:26;18.73;;;7.33;;
55346;SDS011;41218;55.700;38.270;2024-01-30T16:25:26;19.17;;;7.97;;
55346;SDS011;41218;55.700;38.270;2024-01-30T16:30:28;22.13;;;8.37;;
55346;SDS011;41218;55.700;38.270;2024-01-30T16:35:29;22.30;;;8.50;;
55346;SDS011;41218;55.700;38.270;2024-01-30T16:40:29;21.97;;;8.27;;
55346;SDS011;41218;55.700;38.270;2024-01-30T16:45:31;22.38;;;8.63;;
55346;SDS011;41218;55.700;38.270;2024-01-30T16:50:32;22.40;;;7.85;;
55346;SDS011;41218;55.700;38.270;2024-01-30T16:55:32;21.63;;;8.40;;
55346;SDS011;41218;55.700;38.270;2024-01-30T17:00:33;23.40;;;8.83;;
55346;SDS011;41218;55.700;38.270;2024-01-30T17:05:34;24.88;;;8.70;;
55346;SDS011;41218;55.700;38.270;2024-01-30T17:10:35;24.00;;;8.57;;
55346;SDS011;41218;55.700;38.270;2024-01-30T17:15:35;18.80;;;7.43;;
55346;SDS011;41218;55.700;38.270;2024-01-30T17:20:36;21.20;;;8.53;;
55346;SDS011;41218;55.700;38.270;2024-01-30T17:25:36;16.67;;;7.03;;
55346;SDS011;41218;55.700;38.270;2024-01-30T17:30:37;23.47;;;8.00;;
55346;SDS011;41218;55.700;38.270;2024-01-30T17:35:38;19.47;;;8.27;;
55346;SDS011;41218;55.700;38.270;2024-01-30T17:40:39;21.20;;;7.65;;
55346;SDS011;41218;55.700;38.270;2024-01-30T17:45:40;18.97;;;8.17;;
55346;SDS011;41218;55.700;38.270;2024-01-30T17:50:40;21.27;;;7.37;;
55346;SDS011;41218;55.700;38.270;2024-01-30T17:55:41;20.97;;;7.90;;
55346;SDS011;41218;55.700;38.270;2024-01-30T18:00:42;20.07;;;8.13;;
55346;SDS011;41218;55.700;38.270;2024-01-30T18:05:42;18.97;;;7.73;;
55346;SDS011;41218;55.700;38.270;2024-01-30T18:10:43;19.00;;;7.20;;
55346;SDS011;41218;55.700;38.270;2024-01-30T18:15:43;18.80;;;7.33;;
55346;SDS011;41218;55.700;38.270;2024-01-30T18:20:45;18.90;;;7.20;;
55346;SDS011;41218;55.700;38.270;2024-01-30T18:25:46;21.60;;;8.53;;
55346;SDS011;41218;55.700;38.270;2024-01-30T18:35:48;18.23;;;7.30;;
55346;SDS011;41218;55.700;38.270;2024-01-30T18:40:48;20.60;;;7.40;;
55346;SDS011;41218;55.700;38.270;2024-01-30T18:45:51;17.13;;;7.03;;
55346;SDS011;41218;55.700;38.270;2024-01-30T18:50:55;20.92;;;8.07;;
55346;SDS011;41218;55.700;38.270;2024-01-30T18:55:59;22.85;;;7.97;;
55346;SDS011;41218;55.700;38.270;2024-01-30T19:01:01;24.45;;;8.93;;
55346;SDS011;41218;55.700;38.270;2024-01-30T19:06:02;23.67;;;8.68;;
55346;SDS011;41218;55.700;38.270;2024-01-30T19:11:03;21.88;;;8.27;;
55346;SDS011;41218;55.700;38.270;2024-01-30T19:16:04;18.87;;;8.27;;
55346;SDS011;41218;55.700;38.270;2024-01-30T19:21:05;22.63;;;8.40;;
55346;SDS011;41218;55.700;38.270;2024-01-30T19:26:07;26.20;;;8.87;;
55346;SDS011;41218;55.700;38.270;2024-01-30T19:31:09;24.33;;;8.73;;
55346;SDS011;41218;55.700;38.270;2024-01-30T19:36:09;22.03;;;8.13;;
55346;SDS011;41218;55.700;38.270;2024-01-30T19:41:12;22.75;;;8.73;;
55346;SDS011;41218;55.700;38.270;2024-01-30T19:46:13;21.60;;;7.90;;
55346;SDS011;41218;55.700;38.270;2024-01-30T19:51:15;30.25;;;9.52;;
55346;SDS011;41218;55.700;38.270;2024-01-30T19:56:15;19.30;;;8.17;;
55346;SDS011;41218;55.700;38.270;2024-01-30T20:01:17;18.30;;;7.75;;
55346;SDS011;41218;55.700;38.270;2024-01-30T20:06:17;21.63;;;7.97;;
55346;SDS011;41218;55.700;38.270;2024-01-30T20:11:18;23.00;;;8.37;;
55346;SDS011;41218;55.700;38.270;2024-01-30T20:16:19;24.23;;;8.53;;
55346;SDS011;41218;55.700;38.270;2024-01-30T20:21:19;26.10;;;8.52;;
55346;SDS011;41218;55.700;38.270;2024-01-30T20:26:20;19.60;;;7.47;;
55346;SDS011;41218;55.700;38.270;2024-01-30T20:31:21;20.13;;;8.03;;
55346;SDS011;41218;55.700;38.270;2024-01-30T20:36:22;20.77;;;7.47;;
55346;SDS011;41218;55.700;38.270;2024-01-30T20:41:24;23.08;;;8.35;;
55346;SDS011;41218;55.700;38.270;2024-01-30T20:46:24;18.37;;;7.67;;
55346;SDS011;41218;55.700;38.270;2024-01-30T20:51:25;23.17;;;8.63;;
55346;SDS011;41218;55.700;38.270;2024-01-30T20:56:26;22.20;;;8.43;;
55346;SDS011;41218;55.700;38.270;2024-01-30T21:01:28;25.13;;;9.15;;
55346;SDS011;41218;55.700;38.270;2024-01-30T21:06:30;26.35;;;8.90;;
55346;SDS011;41218;55.700;38.270;2024-01-30T21:11:31;27.33;;;8.80;;
55346;SDS011;41218;55.700;38.270;2024-01-30T21:16:32;24.70;;;8.87;;
55346;SDS011;41218;55.700;38.270;2024-01-30T21:21:32;24.30;;;8.63;;
55346;SDS011;41218;55.700;38.270;2024-01-30T21:26:33;24.37;;;8.83;;
55346;SDS011;41218;55.700;38.270;2024-01-30T21:31:33;25.97;;;8.90;;
55346;SDS011;41218;55.700;38.270;2024-01-30T21:36:34;20.27;;;8.00;;
55346;SDS011;41218;55.700;38.270;2024-01-30T21:41:37;21.00;;;8.40;;
55346;SDS011;41218;55.700;38.270;2024-01-30T21:46:37;21.30;;;8.30;;
55346;SDS011;41218;55.700;38.270;2024-01-30T21:51:38;25.08;;;8.88;;
55346;SDS011;41218;55.700;38.270;2024-01-30T21:56:39;22.00;;;8.57;;
55346;SDS011;41218;55.700;38.270;2024-01-30T22:01:40;19.17;;;8.00;;
55346;SDS011;41218;55.700;38.270;2024-01-30T22:06:40;30.90;;;9.70;;
55346;SDS011;41218;55.700;38.270;2024-01-30T22:11:41;28.52;;;9.88;;
55346;SDS011;41218;55.700;38.270;2024-01-30T22:16:43;25.25;;;9.18;;
55346;SDS011;41218;55.700;38.270;2024-01-30T22:21:44;23.58;;;8.82;;
55346;SDS011;41218;55.700;38.270;2024-01-30T22:26:45;26.00;;;9.50;;
55346;SDS011;41218;55.700;38.270;2024-01-30T22:31:46;26.80;;;8.95;;
55346;SDS011;41218;55.700;38.270;2024-01-30T22:36:46;30.02;;;10.10;;
55346;SDS011;41218;55.700;38.270;2024-01-30T22:41:47;24.27;;;9.05;;
55346;SDS011;41218;55.700;38.270;2024-01-30T22:46:48;25.43;;;9.97;;
55346;SDS011;41218;55.700;38.270;2024-01-30T22:51:50;25.50;;;9.30;;
55346;SDS011;41218;55.700;38.270;2024-01-30T22:56:51;28.85;;;10.93;;
55346;SDS011;41218;55.700;38.270;2024-01-30T23:01:52;30.65;;;10.20;;
55346;SDS011;41218;55.700;38.270;2024-01-30T23:06:53;32.63;;;10.33;;
55346;SDS011;41218;55.700;38.270;2024-01-30T23:11:54;24.83;;;9.00;;
55346;SDS011;41218;55.700;38.270;2024-01-30T23:16:56;24.23;;;8.50;;
55346;SDS011;41218;55.700;38.270;2024-01-30T23:21:56;31.08;;;9.15;;
55346;SDS011;41218;55.700;38.270;2024-01-30T23:26:57;29.58;;;9.68;;
55346;SDS011;41218;55.700;38.270;2024-01-30T23:31:58;34.20;;;10.02;;
55346;SDS011;41218;55.700;38.270;2024-01-30T23:36:58;25.60;;;9.10;;
55346;SDS011;41218;55.700;38.270;2024-01-30T23:41:59;23.10;;;8.47;;
55346;SDS011;41218;55.700;38.270;2024-01-30T23:47:00;36.72;;;9.98;;
55346;SDS011;41218;55.700;38.270;2024-01-30T23:52:04;28.80;;;8.80;;
55346;SDS011;41218;55.700;38.270;2024-01-30T23:57:05;30.00;;;9.98;;
